createdAt,value
2023-11-01T00:01:51.153Z,3.20
2023-11-01T00:04:20.447Z,2.80
2023-11-01T00:06:51.126Z,3.23
2023-11-01T00:09:20.455Z,3.23
2023-11-01T00:11:49.629Z,2.63
2023-11-01T00:14:19.104Z,3.00
2023-11-01T00:16:48.482Z,2.93
2023-11-01T00:19:17.911Z,3.10
2023-11-01T00:21:47.078Z,3.03
2023-11-01T00:24:17.752Z,2.93
2023-11-01T00:26:46.876Z,4.20
2023-11-01T00:29:16.374Z,2.83
2023-11-01T00:31:45.647Z,4.43
2023-11-01T00:34:14.947Z,2.73
2023-11-01T00:36:44.125Z,4.17
2023-11-01T00:39:13.257Z,3.50
2023-11-01T00:41:44.005Z,3.17
2023-11-01T00:44:13.155Z,2.00
2023-11-01T00:46:42.499Z,2.07
2023-11-01T00:49:11.716Z,2.53
2023-11-01T00:51:40.798Z,4.07
2023-11-01T00:54:10.140Z,1.90
2023-11-01T00:56:39.440Z,2.90
2023-11-01T00:59:10.116Z,2.50
2023-11-01T01:01:39.886Z,2.30
2023-11-01T01:04:09.297Z,2.60
2023-11-01T01:06:38.584Z,1.83
2023-11-01T01:09:07.830Z,2.30
2023-11-01T01:11:37.134Z,2.63
2023-11-01T01:14:10.124Z,1.90
2023-11-01T01:16:39.375Z,2.90
2023-11-01T01:19:08.458Z,6.37
2023-11-01T01:21:38.748Z,2.10
2023-11-01T01:24:08.566Z,1.97
2023-11-01T01:26:37.841Z,1.87
2023-11-01T01:29:07.234Z,1.70
2023-11-01T01:31:37.976Z,4.30
2023-11-01T01:34:06.207Z,1.63
2023-11-01T01:36:35.716Z,1.80
2023-11-01T01:39:05.193Z,2.47
2023-11-01T01:41:34.699Z,1.70
2023-11-01T01:44:04.022Z,2.17
2023-11-01T01:46:33.704Z,1.63
2023-11-01T01:49:05.373Z,4.00
2023-11-01T01:51:37.569Z,2.80
2023-11-01T01:54:07.063Z,1.97
2023-11-01T01:56:37.160Z,2.70
2023-11-01T01:59:06.858Z,3.00
2023-11-01T02:01:42.803Z,1.97
2023-11-01T02:04:16.205Z,2.73
2023-11-01T02:06:47.797Z,2.17
2023-11-01T02:09:17.789Z,1.80
2023-11-01T02:11:47.990Z,1.70
2023-11-01T02:14:17.352Z,1.77
2023-11-01T02:16:46.571Z,3.77
2023-11-01T02:19:19.547Z,1.73
2023-11-01T02:21:48.817Z,2.23
2023-11-01T02:24:19.602Z,2.03
2023-11-01T02:26:48.909Z,1.50
2023-11-01T02:29:18.198Z,1.77
2023-11-01T02:31:48.270Z,3.77
2023-11-01T02:34:17.663Z,1.40
2023-11-01T02:36:47.071Z,4.97
2023-11-01T02:39:16.326Z,1.47
2023-11-01T02:41:47.160Z,2.60
2023-11-01T02:44:16.445Z,1.67
2023-11-01T02:46:45.713Z,1.50
2023-11-01T02:49:15.057Z,1.70
2023-11-01T02:51:44.310Z,1.50
2023-11-01T02:54:13.706Z,1.77
2023-11-01T02:56:43.336Z,1.50
2023-11-01T02:59:14.111Z,2.07
2023-11-01T03:01:43.700Z,1.30
2023-11-01T03:04:13.059Z,1.40
2023-11-01T03:06:41.233Z,1.70
2023-11-01T03:09:10.828Z,1.60
2023-11-01T03:11:42.872Z,1.30
2023-11-01T03:14:13.973Z,1.70
2023-11-01T03:16:43.868Z,1.87
2023-11-01T03:19:13.544Z,1.73
2023-11-01T03:21:44.423Z,1.73
2023-11-01T03:24:14.034Z,3.03
2023-11-01T03:26:44.060Z,1.67
2023-11-01T03:29:15.036Z,1.80
2023-11-01T03:31:44.988Z,1.73
2023-11-01T03:34:14.255Z,2.53
2023-11-01T03:36:44.057Z,3.77
2023-11-01T03:39:14.143Z,2.77
2023-11-01T03:41:43.991Z,3.97
2023-11-01T03:44:14.919Z,2.70
2023-11-01T03:46:44.265Z,3.60
2023-11-01T03:49:13.352Z,3.63
2023-11-01T03:51:42.560Z,2.57
2023-11-01T03:54:11.699Z,4.60
2023-11-01T03:56:45.383Z,2.70
2023-11-01T03:59:16.091Z,4.50
2023-11-01T04:01:45.413Z,2.53
2023-11-01T04:04:14.881Z,2.43
2023-11-01T04:06:44.378Z,3.67
2023-11-01T04:09:13.716Z,3.70
2023-11-01T04:11:43.620Z,2.63
2023-11-01T04:14:12.976Z,3.47
2023-11-01T04:16:43.660Z,2.97
2023-11-01T04:19:13.447Z,3.70
2023-11-01T04:21:42.585Z,2.77
2023-11-01T04:24:12.138Z,3.60
2023-11-01T04:26:41.218Z,2.60
2023-11-01T04:29:10.339Z,2.43
2023-11-01T04:31:40.073Z,4.00
2023-11-01T04:34:11.949Z,2.77
2023-11-01T04:36:41.933Z,2.73
2023-11-01T04:39:12.132Z,2.80
2023-11-01T04:41:42.356Z,4.23
2023-11-01T04:44:11.597Z,3.70
2023-11-01T04:46:41.784Z,2.70
2023-11-01T04:49:12.455Z,3.10
2023-11-01T04:51:41.858Z,2.87
2023-11-01T04:54:11.484Z,2.97
2023-11-01T04:56:41.858Z,5.20
2023-11-01T04:59:11.400Z,4.83
2023-11-01T05:01:40.620Z,4.17
2023-11-01T05:04:09.745Z,2.80
2023-11-01T05:06:40.769Z,2.87
2023-11-01T05:09:10.458Z,3.90
2023-11-01T05:11:39.762Z,3.10
2023-11-01T05:14:09.540Z,3.07
2023-11-01T05:16:38.673Z,4.07
2023-11-01T05:19:10.135Z,3.33
2023-11-01T05:21:43.635Z,3.33
2023-11-01T05:24:12.906Z,3.50
2023-11-01T05:26:42.221Z,3.03
2023-11-01T05:29:12.299Z,3.10
2023-11-01T05:31:41.600Z,3.50
2023-11-01T05:34:12.687Z,3.30
2023-11-01T05:36:43.310Z,2.50
2023-11-01T05:39:12.639Z,2.83
2023-11-01T05:41:41.989Z,3.33
2023-11-01T05:44:11.216Z,5.40
2023-11-01T05:46:40.675Z,3.80
2023-11-01T05:49:10.306Z,2.80
2023-11-01T05:51:39.451Z,2.40
2023-11-01T05:54:10.120Z,2.47
2023-11-01T05:56:39.302Z,4.07
2023-11-01T05:59:10.936Z,2.73
2023-11-01T06:01:40.226Z,2.33
2023-11-01T06:04:09.993Z,2.63
2023-11-01T06:06:39.082Z,2.47
2023-11-01T06:09:09.733Z,4.40
2023-11-01T06:11:39.417Z,2.23
2023-11-01T06:14:09.145Z,3.30
2023-11-01T06:16:38.247Z,3.30
2023-11-01T06:19:07.604Z,1.90
2023-11-01T06:21:37.936Z,2.10
2023-11-01T06:24:07.867Z,2.87
2023-11-01T06:26:38.490Z,2.17
2023-11-01T06:29:07.710Z,2.57
2023-11-01T06:31:36.743Z,2.43
2023-11-01T06:34:05.898Z,2.30
2023-11-01T06:36:35.003Z,2.33
2023-11-01T06:39:04.148Z,2.60
2023-11-01T06:41:33.262Z,2.60
2023-11-01T06:44:03.780Z,2.93
2023-11-01T06:46:32.961Z,2.47
2023-11-01T06:49:02.196Z,3.77
2023-11-01T06:51:31.288Z,2.93
2023-11-01T06:54:00.806Z,2.70
2023-11-01T06:56:29.944Z,2.70
2023-11-01T06:58:59.149Z,2.40
2023-11-01T07:01:29.749Z,2.13
2023-11-01T07:03:59.012Z,2.43
2023-11-01T07:06:28.348Z,3.47
2023-11-01T07:08:57.650Z,2.93
2023-11-01T07:11:26.954Z,4.33
2023-11-01T07:13:56.109Z,3.77
2023-11-01T07:16:26.110Z,2.97
2023-11-01T07:18:57.378Z,3.17
2023-11-01T07:21:26.554Z,4.37
2023-11-01T07:23:55.769Z,6.70
2023-11-01T07:26:24.939Z,2.17
2023-11-01T07:28:54.327Z,4.47
2023-11-01T07:31:23.404Z,3.63
2023-11-01T07:33:53.050Z,2.43
2023-11-01T07:36:23.775Z,1.90
2023-11-01T07:38:52.973Z,2.67
2023-11-01T07:41:22.288Z,3.03
2023-11-01T07:43:51.527Z,2.97
2023-11-01T07:46:20.714Z,3.00
2023-11-01T07:48:49.849Z,2.00
2023-11-01T07:51:19.027Z,2.83
2023-11-01T07:53:49.935Z,2.00
2023-11-01T07:56:19.109Z,2.97
2023-11-01T07:58:49.001Z,3.23
2023-11-01T08:01:18.825Z,1.60
2023-11-01T08:03:48.539Z,1.97
2023-11-01T08:06:18.022Z,3.80
2023-11-01T08:08:48.924Z,2.60
2023-11-01T08:11:18.429Z,1.87
2023-11-01T08:13:47.582Z,2.47
2023-11-01T08:16:16.922Z,2.90
2023-11-01T08:18:46.332Z,1.90
2023-11-01T08:21:15.521Z,1.70
2023-11-01T08:23:46.035Z,1.70
2023-11-01T08:26:20.711Z,1.90
2023-11-01T08:28:50.098Z,2.20
2023-11-01T08:31:19.305Z,2.10
2023-11-01T08:33:48.559Z,4.37
2023-11-01T08:36:18.073Z,2.40
2023-11-01T08:38:47.283Z,2.43
2023-11-01T08:41:17.606Z,2.00
2023-11-01T08:43:48.273Z,2.27
2023-11-01T08:46:18.026Z,2.30
2023-11-01T08:48:47.393Z,1.70
2023-11-01T08:51:16.829Z,1.88
2023-11-01T08:53:46.121Z,2.27
2023-11-01T08:56:15.314Z,11.38
2023-11-01T08:58:44.411Z,2.55
2023-11-01T09:01:15.286Z,1.98
2023-11-01T09:03:44.648Z,2.30
2023-11-01T09:06:13.938Z,2.15
2023-11-01T09:08:44.040Z,2.45
2023-11-01T09:11:13.137Z,2.60
2023-11-01T09:13:44.567Z,2.38
2023-11-01T09:16:15.316Z,2.83
2023-11-01T09:18:45.098Z,2.67
2023-11-01T09:21:14.506Z,1.77
2023-11-01T09:23:43.737Z,2.30
2023-11-01T09:26:16.623Z,2.10
2023-11-01T09:28:46.101Z,3.50
2023-11-01T09:31:16.849Z,2.28
2023-11-01T09:33:50.821Z,3.05
2023-11-01T09:36:20.269Z,2.15
2023-11-01T09:38:49.523Z,1.47
2023-11-01T09:41:23.987Z,2.58
2023-11-01T09:43:54.132Z,2.87
2023-11-01T09:46:25.394Z,2.03
2023-11-01T09:48:56.577Z,2.87
2023-11-01T09:51:26.442Z,2.20
2023-11-01T09:53:55.868Z,2.00
2023-11-01T09:56:29.986Z,2.65
2023-11-01T09:59:00.196Z,2.37
2023-11-01T10:01:31.078Z,1.60
2023-11-01T10:04:01.516Z,3.30
2023-11-01T10:06:33.345Z,3.13
2023-11-01T10:09:02.864Z,1.43
2023-11-01T10:11:33.262Z,1.73
2023-11-01T10:14:05.108Z,1.80
2023-11-01T10:16:36.272Z,3.63
2023-11-01T10:19:05.390Z,1.33
2023-11-01T10:21:40.215Z,1.90
2023-11-01T10:24:12.243Z,1.40
2023-11-01T10:26:41.969Z,1.77
2023-11-01T10:29:11.060Z,1.67
2023-11-01T10:31:41.823Z,2.53
2023-11-01T10:34:14.669Z,3.07
2023-11-01T10:36:52.782Z,2.63
2023-11-01T10:39:23.135Z,2.90
2023-11-01T10:41:53.930Z,2.27
2023-11-01T10:44:24.855Z,1.63
2023-11-01T10:46:55.694Z,1.67
2023-11-01T10:49:25.992Z,2.13
2023-11-01T10:51:56.440Z,3.03
2023-11-01T10:54:26.656Z,3.47
2023-11-01T10:56:56.287Z,2.43
2023-11-01T10:59:34.439Z,3.33
2023-11-01T11:02:18.532Z,2.53
2023-11-01T11:04:55.641Z,2.57
2023-11-01T11:07:41.637Z,2.33
2023-11-01T11:10:25.419Z,2.20
2023-11-01T11:13:30.283Z,2.60
2023-11-01T11:16:03.095Z,2.50
2023-11-01T11:18:57.398Z,2.50
2023-11-01T11:22:00.710Z,2.17
2023-11-01T11:24:48.131Z,3.40
2023-11-01T11:27:51.966Z,2.17
2023-11-01T11:31:09.193Z,3.30
2023-11-01T11:33:40.465Z,2.97
2023-11-01T11:36:13.421Z,2.17
2023-11-01T11:38:51.455Z,4.00
2023-11-01T11:41:22.512Z,2.60
2023-11-01T11:44:00.970Z,3.30
2023-11-01T11:46:31.761Z,3.73
2023-11-01T11:49:01.388Z,2.50
2023-11-01T11:51:35.429Z,1.97
2023-11-01T11:54:16.025Z,2.73
2023-11-01T11:56:45.458Z,2.30
2023-11-01T11:59:21.933Z,2.60
2023-11-01T12:01:53.082Z,2.17
2023-11-01T12:04:23.219Z,5.03
2023-11-01T12:06:56.258Z,2.57
2023-11-01T12:09:26.827Z,3.23
2023-11-01T12:11:57.648Z,2.60
2023-11-01T12:14:29.078Z,3.60
2023-11-01T12:17:01.797Z,2.03
2023-11-01T12:19:30.949Z,2.97
2023-11-01T12:22:02.618Z,2.70
2023-11-01T12:24:43.405Z,2.73
2023-11-01T12:27:14.507Z,2.90
2023-11-01T12:29:45.288Z,2.43
2023-11-01T12:32:15.936Z,3.47
2023-11-01T12:35:04.337Z,2.60
2023-11-01T12:37:36.932Z,3.40
2023-11-01T12:40:12.072Z,3.17
2023-11-01T12:42:43.415Z,2.07
2023-11-01T12:45:13.005Z,2.37
2023-11-01T12:47:44.349Z,2.53
2023-11-01T12:50:14.917Z,3.10
2023-11-01T12:52:45.985Z,2.23
2023-11-01T12:55:15.632Z,2.30
2023-11-01T12:57:48.163Z,2.53
2023-11-01T13:00:18.662Z,2.60
2023-11-01T13:02:48.634Z,3.30
2023-11-01T13:05:18.446Z,5.53
2023-11-01T13:07:49.316Z,2.97
2023-11-01T13:10:18.728Z,2.93
2023-11-01T13:12:49.439Z,2.00
2023-11-01T13:15:19.096Z,2.00
2023-11-01T13:17:50.078Z,2.47
2023-11-01T13:20:21.353Z,1.90
2023-11-01T13:22:54.113Z,3.57
2023-11-01T13:25:24.389Z,2.70
2023-11-01T13:27:53.827Z,3.67
2023-11-01T13:30:22.858Z,2.87
2023-11-01T13:32:52.187Z,2.47
2023-11-01T13:35:21.445Z,3.07
2023-11-01T13:37:51.997Z,2.57
2023-11-01T13:40:21.736Z,2.87
2023-11-01T13:42:50.848Z,2.97
2023-11-01T13:45:21.308Z,3.73
2023-11-01T13:47:50.908Z,2.30
2023-11-01T13:50:20.245Z,3.40
2023-11-01T13:52:49.653Z,2.30
2023-11-01T13:55:20.422Z,3.97
2023-11-01T13:57:49.842Z,3.40
2023-11-01T14:00:19.396Z,2.70
2023-11-01T14:02:48.948Z,2.57
2023-11-01T14:05:18.612Z,4.63
2023-11-01T14:07:47.637Z,6.97
2023-11-01T14:10:17.860Z,2.47
2023-11-01T14:12:49.484Z,3.93
2023-11-01T14:15:20.004Z,5.67
2023-11-01T14:17:50.150Z,4.37
2023-11-01T14:20:20.437Z,5.73
2023-11-01T14:22:50.414Z,4.67
2023-11-01T14:25:19.702Z,4.77
2023-11-01T14:27:51.227Z,2.67
2023-11-01T14:30:21.207Z,3.90
2023-11-01T14:32:51.968Z,3.93
2023-11-01T14:35:21.629Z,3.40
2023-11-01T14:37:50.761Z,4.93
2023-11-01T14:40:20.358Z,2.87
2023-11-01T14:42:51.143Z,3.53
2023-11-01T14:45:20.306Z,3.17
2023-11-01T14:47:49.868Z,4.30
2023-11-01T14:50:19.466Z,3.73
2023-11-01T14:52:49.001Z,3.80
2023-11-01T14:55:18.197Z,2.97
2023-11-01T14:57:47.723Z,4.47
2023-11-01T15:00:19.327Z,3.97
2023-11-01T15:02:49.887Z,4.27
2023-11-01T15:05:20.354Z,5.00
2023-11-01T15:07:49.547Z,3.10
2023-11-01T15:10:19.020Z,3.93
2023-11-01T15:12:48.128Z,4.27
2023-11-01T15:15:19.004Z,6.30
2023-11-01T15:17:50.342Z,4.03
2023-11-01T15:20:19.753Z,5.00
2023-11-01T15:22:49.077Z,5.63
2023-11-01T15:25:17.962Z,3.80
2023-11-01T15:27:47.156Z,10.17
2023-11-01T15:30:20.350Z,5.40
2023-11-01T15:32:49.539Z,3.67
2023-11-01T15:35:25.275Z,5.23
2023-11-01T15:37:54.470Z,6.33
2023-11-01T15:40:23.864Z,4.80
2023-11-01T15:42:53.300Z,4.00
2023-11-01T15:45:24.221Z,4.43
2023-11-01T15:47:53.569Z,6.23
2023-11-01T15:50:23.153Z,5.07
2023-11-01T15:52:52.627Z,6.07
2023-11-01T15:55:22.014Z,6.27
2023-11-01T15:57:51.932Z,5.10
2023-11-01T16:00:23.810Z,4.40
2023-11-01T16:02:53.458Z,4.33
2023-11-01T16:05:23.075Z,8.20
2023-11-01T16:07:53.059Z,4.90
2023-11-01T16:10:23.837Z,5.70
2023-11-01T16:12:52.980Z,4.33
2023-11-01T16:15:24.516Z,4.60
2023-11-01T16:17:54.609Z,5.10
2023-11-01T16:20:25.290Z,5.67
2023-11-01T16:22:55.771Z,4.83
2023-11-01T16:25:25.264Z,5.17
2023-11-01T16:27:57.407Z,5.53
2023-11-01T16:30:47.718Z,6.20
2023-11-01T16:33:18.217Z,7.90
2023-11-01T16:35:48.235Z,40.07
2023-11-01T16:38:19.179Z,8.60
2023-11-01T16:40:48.911Z,5.23
2023-11-01T16:43:19.272Z,6.63
2023-11-01T16:45:53.947Z,6.03
2023-11-01T16:48:23.495Z,6.20
2023-11-01T16:50:53.941Z,5.63
2023-11-01T16:53:24.181Z,6.53
2023-11-01T16:55:54.804Z,7.67
2023-11-01T16:58:26.783Z,9.47
2023-11-01T17:00:58.736Z,6.53
2023-11-01T17:03:28.701Z,7.07
2023-11-01T17:05:58.858Z,7.73
2023-11-01T17:08:28.882Z,8.03
2023-11-01T17:10:59.926Z,12.17
2023-11-01T17:13:31.449Z,6.47
2023-11-01T17:16:05.501Z,6.93
2023-11-01T17:18:36.291Z,7.53
2023-11-01T17:21:08.026Z,7.57
2023-11-01T17:23:40.516Z,13.80
2023-11-01T17:26:26.949Z,9.50
2023-11-01T17:33:35.275Z,10.60
2023-11-01T17:36:08.068Z,7.57
2023-11-01T17:38:42.066Z,9.57
2023-11-01T17:41:46.440Z,9.80
2023-11-01T17:44:16.215Z,8.27
2023-11-01T17:46:45.394Z,7.57
2023-11-01T17:49:42.997Z,8.50
2023-11-01T17:52:12.968Z,8.17
2023-11-01T17:54:42.498Z,8.37
2023-11-01T17:57:12.228Z,9.50
2023-11-01T17:59:41.965Z,8.17
2023-11-01T18:02:54.125Z,9.43
2023-11-01T18:05:36.889Z,7.47
2023-11-01T18:08:15.388Z,7.07
2023-11-01T18:10:48.888Z,6.93
2023-11-01T18:13:24.553Z,8.10
2023-11-01T18:15:56.385Z,8.40
2023-11-01T18:18:45.074Z,10.87
2023-11-01T18:21:21.491Z,9.63
2023-11-01T18:24:05.042Z,8.93
2023-11-01T18:26:34.789Z,9.37
2023-11-01T18:29:07.213Z,9.67
2023-11-01T18:31:41.586Z,9.53
2023-11-01T18:34:12.056Z,8.77
2023-11-01T18:36:44.935Z,10.50
2023-11-01T18:39:14.365Z,17.10
2023-11-01T18:41:45.385Z,10.80
2023-11-01T18:44:26.517Z,10.70
2023-11-01T18:46:58.268Z,11.67
2023-11-01T18:49:56.424Z,11.10
2023-11-01T18:52:27.212Z,13.60
2023-11-01T18:54:56.405Z,11.50
2023-11-01T18:57:28.594Z,15.10
2023-11-01T18:59:58.360Z,14.13
2023-11-01T19:03:04.367Z,10.93
2023-11-01T19:05:34.661Z,12.00
2023-11-01T19:08:06.084Z,11.47
2023-11-01T19:10:37.253Z,14.57
2023-11-01T19:13:06.595Z,13.40
2023-11-01T19:16:17.065Z,13.93
2023-11-01T19:18:48.254Z,14.87
2023-11-01T19:21:17.870Z,13.87
2023-11-01T19:23:50.123Z,15.47
2023-11-01T19:26:21.944Z,14.70
2023-11-01T19:28:53.248Z,14.33
2023-11-01T19:31:22.569Z,13.63
2023-11-01T19:33:54.719Z,16.23
2023-11-01T19:36:24.533Z,15.93
2023-11-01T19:38:55.518Z,17.13
2023-11-01T19:41:24.904Z,15.57
2023-11-01T19:43:59.576Z,18.20
2023-11-01T19:46:28.884Z,19.00
2023-11-01T19:48:58.168Z,17.90
2023-11-01T19:51:27.150Z,19.97
2023-11-01T19:53:57.840Z,24.03
2023-11-01T19:56:27.443Z,21.87
2023-11-01T19:58:56.684Z,22.60
2023-11-01T20:01:26.295Z,22.63
2023-11-01T20:03:55.615Z,21.23
2023-11-01T20:06:24.985Z,18.20
2023-11-01T20:08:54.573Z,20.80
2023-11-01T20:11:25.134Z,21.67
2023-11-01T20:13:54.304Z,22.07
2023-11-01T20:16:30.366Z,113.43
2023-11-01T20:19:01.272Z,51.00
2023-11-01T20:21:31.132Z,25.80
2023-11-01T20:24:01.401Z,22.53
2023-11-01T20:26:32.582Z,22.73
2023-11-01T20:29:01.939Z,25.00
2023-11-01T20:31:31.260Z,22.87
2023-11-01T20:34:00.689Z,27.57
2023-11-01T20:36:30.180Z,25.20
2023-11-01T20:38:59.826Z,30.37
2023-11-01T20:41:29.120Z,28.33
2023-11-01T20:43:59.795Z,24.20
2023-11-01T20:46:28.990Z,24.40
2023-11-01T20:48:58.967Z,24.73
2023-11-01T20:51:28.226Z,24.70
2023-11-01T20:53:59.703Z,24.30
2023-11-01T20:56:28.996Z,25.70
2023-11-01T20:58:59.619Z,24.37
2023-11-01T21:01:28.953Z,24.53
2023-11-01T21:03:58.930Z,22.53
2023-11-01T21:06:29.254Z,25.80
2023-11-01T21:09:01.035Z,24.17
2023-11-01T21:11:33.251Z,26.17
2023-11-01T21:14:04.924Z,25.17
2023-11-01T21:16:35.011Z,32.97
2023-11-01T21:19:04.719Z,28.37
2023-11-01T21:21:34.080Z,26.07
2023-11-01T21:24:03.767Z,27.03
2023-11-01T21:26:33.268Z,27.50
2023-11-01T21:29:04.014Z,30.80
2023-11-01T21:31:33.300Z,30.93
2023-11-01T21:34:02.599Z,33.40
2023-11-01T21:36:31.813Z,31.93
2023-11-01T21:39:01.033Z,30.07
2023-11-01T21:41:30.261Z,33.40
2023-11-01T21:43:59.690Z,31.10
2023-11-01T21:46:32.780Z,30.07
2023-11-01T21:49:03.644Z,30.93
2023-11-01T21:51:33.043Z,32.90
2023-11-01T21:54:04.111Z,31.53
2023-11-01T21:56:36.324Z,32.27
2023-11-01T21:59:12.529Z,29.33
2023-11-01T22:01:43.515Z,28.60
2023-11-01T22:04:21.610Z,31.23
2023-11-01T22:06:52.514Z,29.00
2023-11-01T22:09:22.471Z,33.07
2023-11-01T22:11:53.202Z,27.20
2023-11-01T22:14:34.263Z,34.23
2023-11-01T22:17:08.224Z,34.67
2023-11-01T22:19:39.516Z,50.83
2023-11-01T22:22:53.070Z,35.97
2023-11-01T22:25:35.033Z,36.23
2023-11-01T22:28:08.408Z,44.63
2023-11-01T22:30:39.438Z,39.23
2023-11-01T22:33:11.326Z,35.47
2023-11-01T22:35:42.851Z,41.30
2023-11-01T22:38:13.832Z,52.70
2023-11-01T22:40:47.297Z,42.87
2023-11-01T22:43:17.488Z,46.13
2023-11-01T22:45:53.954Z,47.57
2023-11-01T22:48:24.579Z,64.77
2023-11-01T22:50:53.968Z,46.83
2023-11-01T22:53:24.896Z,40.30
2023-11-01T22:55:54.765Z,38.80
2023-11-01T22:58:23.801Z,41.20
2023-11-01T23:00:54.140Z,48.17
2023-11-01T23:03:24.807Z,44.40
2023-11-01T23:05:54.115Z,34.73
2023-11-01T23:08:23.264Z,28.70
2023-11-01T23:10:52.422Z,34.03
2023-11-01T23:13:21.605Z,31.40
2023-11-01T23:15:51.035Z,34.43
2023-11-01T23:18:20.388Z,28.87
2023-11-01T23:20:50.974Z,31.30
2023-11-01T23:23:20.797Z,25.83
2023-11-01T23:25:50.156Z,38.33
2023-11-01T23:28:55.093Z,38.77
2023-11-01T23:31:27.855Z,68.83
2023-11-01T23:33:56.979Z,32.37
2023-11-01T23:36:31.385Z,36.83
2023-11-01T23:39:01.470Z,50.57
2023-11-01T23:41:47.701Z,61.23
2023-11-01T23:44:17.342Z,35.30
2023-11-01T23:46:46.732Z,32.60
2023-11-01T23:49:40.454Z,30.90
2023-11-01T23:52:15.284Z,91.30
2023-11-01T23:54:44.397Z,27.33
2023-11-01T23:57:14.000Z,73.97
2023-11-01T23:59:44.358Z,46.27
